Time;durP1;ratioP1;P1;durP2;ratioP2;P2;SDS_P1;SDS_P2;PMS_P1;PMS_P2;Temp;Humidity;BMP_temperature;BMP_pressure;BME280_temperature;BME280_humidity;BME280_pressure;Samples;Min_cycle;Max_cycle;Signal;HPM_P1;HPM_P2
2022/05/11 00:00:27;;;;;;;4.97;2.13;;;17.60;79.60;;;;;;4936323;29;20495;-78
2022/05/11 00:02:53;;;;;;;7.20;2.20;;;17.50;80.30;;;;;;4936214;29;20103;-78
2022/05/11 00:05:19;;;;;;;5.47;2.60;;;17.50;80.50;;;;;;4936014;29;20031;-78
2022/05/11 00:07:44;;;;;;;6.85;2.47;;;17.50;81.00;;;;;;4936148;29;20055;-78
2022/05/11 00:10:13;;;;;;;3.17;2.13;;;17.50;81.50;;;;;;4935996;29;20031;-78
2022/05/11 00:12:42;;;;;;;2.85;1.80;;;17.50;81.60;;;;;;4942050;29;20439;-78
2022/05/11 00:15:13;;;;;;;4.65;2.42;;;17.40;81.70;;;;;;4946718;28;20028;-78
2022/05/11 00:17:39;;;;;;;4.45;2.10;;;17.40;82.20;;;;;;4935840;29;20024;-78
2022/05/11 00:20:06;;;;;;;8.05;2.30;;;17.30;83.10;;;;;;4935759;29;20099;-78
2022/05/11 00:22:33;;;;;;;6.60;2.33;;;17.20;83.60;;;;;;4935923;29;20581;-78
2022/05/11 00:24:59;;;;;;;4.82;2.72;;;17.20;83.90;;;;;;4935427;29;20506;-78
2022/05/11 00:27:25;;;;;;;6.22;2.30;;;17.20;84.10;;;;;;4936170;29;20028;-78
2022/05/11 00:29:50;;;;;;;3.30;2.05;;;17.20;84.40;;;;;;4935478;29;20508;-78
2022/05/11 00:32:16;;;;;;;3.70;1.95;;;17.10;84.30;;;;;;4934882;29;20032;-78
2022/05/11 00:34:42;;;;;;;5.70;2.90;;;17.10;84.70;;;;;;4934179;29;20052;-78
2022/05/11 00:37:07;;;;;;;2.95;1.98;;;17.00;85.80;;;;;;4935323;29;20055;-78
2022/05/11 00:39:35;;;;;;;6.40;2.40;;;17.00;85.60;;;;;;4935965;29;20399;-78
2022/05/11 00:42:04;;;;;;;3.67;2.13;;;17.00;85.70;;;;;;4935013;29;20027;-78
2022/05/11 00:44:30;;;;;;;3.55;2.22;;;16.90;86.50;;;;;;4934844;29;20039;-78
2022/05/11 00:47:05;;;;;;;7.47;2.75;;;16.90;85.90;;;;;;4934819;29;20396;-78
2022/05/11 00:49:36;;;;;;;5.82;2.50;;;16.90;86.20;;;;;;4935277;29;20389;-79
2022/05/11 00:52:12;;;;;;;3.20;2.10;;;16.90;85.70;;;;;;4935446;29;20046;-78
2022/05/11 00:54:44;;;;;;;4.72;2.20;;;16.90;86.20;;;;;;4940212;29;20042;-78
2022/05/11 00:57:20;;;;;;;3.95;2.10;;;16.90;85.70;;;;;;4954266;28;20031;-78
2022/05/11 00:59:48;;;;;;;3.38;2.05;;;17.00;85.70;;;;;;4954555;29;20023;-78
2022/05/11 01:02:14;;;;;;;4.97;2.17;;;16.90;85.90;;;;;;4935048;28;20202;-78
2022/05/11 01:04:42;;;;;;;7.03;2.25;;;16.90;86.00;;;;;;4935050;29;20024;-78
2022/05/11 01:07:10;;;;;;;2.60;1.70;;;16.90;86.40;;;;;;4935360;29;20051;-78
2022/05/11 01:09:36;;;;;;;3.97;2.53;;;16.80;86.70;;;;;;4935218;29;20024;-78
2022/05/11 01:12:07;;;;;;;3.63;1.88;;;16.70;87.90;;;;;;4935547;29;20131;-78
2022/05/11 01:14:38;;;;;;;6.25;2.53;;;16.70;88.00;;;;;;4935020;29;20030;-78
2022/05/11 01:17:04;;;;;;;6.22;2.50;;;16.60;89.10;;;;;;4934311;29;20036;-78
2022/05/11 01:19:35;;;;;;;5.25;2.35;;;16.50;90.00;;;;;;4934629;29;20038;-78
2022/05/11 01:22:20;;;;;;;4.72;2.75;;;16.40;90.80;;;;;;4934813;29;20028;-78
2022/05/11 01:24:50;;;;;;;4.47;2.38;;;16.40;91.00;;;;;;4935200;29;20028;-78
2022/05/11 01:27:53;;;;;;;6.18;2.35;;;16.40;91.10;;;;;;4934607;29;20074;-78
2022/05/11 01:30:23;;;;;;;6.35;2.33;;;16.50;91.30;;;;;;4912890;29;20040;-78
2022/05/11 01:32:53;;;;;;;4.38;2.30;;;16.40;91.40;;;;;;4913656;29;20043;-78
2022/05/11 01:35:36;;;;;;;3.28;2.00;;;16.30;91.70;;;;;;4913745;29;20052;-78
2022/05/11 01:38:41;;;;;;;5.35;2.40;;;16.20;92.10;;;;;;4913649;29;20028;-78
2022/05/11 01:41:16;;;;;;;3.92;2.70;;;16.10;92.50;;;;;;4897511;29;20535;-78
2022/05/11 01:43:42;;;;;;;3.63;2.30;;;16.00;92.70;;;;;;4913380;29;20036;-78
2022/05/11 01:46:09;;;;;;;14.52;3.47;;;16.00;92.80;;;;;;4913191;29;20234;-78
2022/05/11 01:48:35;;;;;;;5.40;2.63;;;16.00;93.10;;;;;;4913057;29;20080;-78
2022/05/11 01:51:01;;;;;;;6.95;2.38;;;15.90;93.30;;;;;;4913853;29;20036;-78
2022/05/11 01:53:28;;;;;;;5.32;2.65;;;16.00;93.20;;;;;;4913568;29;20115;-78
2022/05/11 01:55:53;;;;;;;4.07;3.00;;;15.80;93.80;;;;;;4917521;29;20039;-78
2022/05/11 01:58:21;;;;;;;6.95;2.72;;;15.80;93.70;;;;;;4927619;29;20039;-78
2022/05/11 02:00:47;;;;;;;4.30;2.33;;;15.80;94.00;;;;;;4936083;29;20043;-78
2022/05/11 02:03:15;;;;;;;8.73;2.58;;;15.70;94.10;;;;;;4936142;29;20027;-78
2022/05/11 02:08:27;;;;;;;7.90;3.13;;;15.80;94.00;;;;;;4938177;29;20026;-78
2022/05/11 02:10:53;;;;;;;7.97;2.53;;;15.70;94.20;;;;;;4936842;29;20115;-78
2022/05/11 02:13:19;;;;;;;4.70;2.47;;;15.70;94.50;;;;;;4937715;29;20122;-78
2022/05/11 02:15:44;;;;;;;4.70;2.75;;;15.70;94.40;;;;;;4937871;29;20039;-78
2022/05/11 02:18:11;;;;;;;5.05;2.70;;;15.70;94.50;;;;;;4937997;29;20554;-78
2022/05/11 02:20:37;;;;;;;5.95;2.75;;;15.60;94.50;;;;;;4938259;29;20141;-78
2022/05/11 02:23:03;;;;;;;4.88;2.95;;;15.50;94.80;;;;;;4938000;29;20151;-78
2022/05/11 02:25:28;;;;;;;4.70;2.50;;;15.50;95.00;;;;;;4937669;29;20046;-78
2022/05/11 02:27:55;;;;;;;5.63;2.38;;;15.40;95.30;;;;;;4938015;29;20020;-78
2022/05/11 02:30:27;;;;;;;7.75;2.60;;;15.50;95.20;;;;;;4937542;29;20407;-78
2022/05/11 02:32:54;;;;;;;9.15;2.88;;;15.50;95.40;;;;;;4937747;29;20031;-78
2022/05/11 02:35:21;;;;;;;4.53;2.72;;;15.40;95.50;;;;;;4937770;29;20455;-78
2022/05/11 02:37:56;;;;;;;4.05;2.42;;;15.40;95.70;;;;;;4937587;29;20184;-78
2022/05/11 02:40:26;;;;;;;5.07;3.10;;;15.40;95.70;;;;;;4937446;29;20078;-78
2022/05/11 02:42:52;;;;;;;6.88;2.70;;;15.50;95.70;;;;;;4937361;29;20035;-78
2022/05/11 02:45:18;;;;;;;6.35;2.83;;;15.40;95.80;;;;;;4937754;29;20031;-78
2022/05/11 02:47:45;;;;;;;7.60;2.67;;;15.50;95.90;;;;;;4937515;29;20552;-78
2022/05/11 02:50:13;;;;;;;5.85;2.90;;;15.40;96.00;;;;;;4937656;29;20123;-78
2022/05/11 02:52:39;;;;;;;4.65;2.97;;;15.30;96.40;;;;;;4937415;29;20495;-78
2022/05/11 02:55:05;;;;;;;5.50;2.55;;;15.20;96.50;;;;;;4944840;29;20044;-78
2022/05/11 02:57:31;;;;;;;6.28;3.00;;;15.20;96.70;;;;;;4936229;29;20055;-78
2022/05/11 02:59:58;;;;;;;5.47;2.65;;;15.20;96.90;;;;;;4937445;29;20066;-78
2022/05/11 03:02:24;;;;;;;7.13;2.85;;;15.20;96.90;;;;;;4937227;29;20114;-78
2022/05/11 03:04:51;;;;;;;7.53;3.40;;;15.20;97.20;;;;;;4936623;29;20118;-78
2022/05/11 03:07:18;;;;;;;8.02;3.45;;;15.00;97.90;;;;;;4937007;29;20020;-78
2022/05/11 03:09:44;;;;;;;4.88;3.10;;;15.10;97.60;;;;;;4936804;29;20035;-78
2022/05/11 03:12:11;;;;;;;5.40;2.75;;;15.10;97.90;;;;;;4936905;29;20039;-78
2022/05/11 03:14:41;;;;;;;10.35;3.72;;;15.00;98.00;;;;;;4936765;29;20508;-78
2022/05/11 03:17:08;;;;;;;6.80;3.10;;;15.00;98.00;;;;;;4935856;29;20488;-78
2022/05/11 03:19:33;;;;;;;8.23;3.20;;;15.00;98.30;;;;;;4937261;29;20389;-78
2022/05/11 03:21:59;;;;;;;7.90;3.38;;;14.90;98.50;;;;;;4936844;29;20078;-78
2022/05/11 03:24:25;;;;;;;4.70;3.13;;;14.90;98.70;;;;;;4938574;29;20043;-78
2022/05/11 03:26:51;;;;;;;8.57;3.83;;;14.90;98.70;;;;;;4936389;29;20024;-78
2022/05/11 03:29:18;;;;;;;7.07;3.60;;;14.90;99.10;;;;;;4936832;29;20034;-78
2022/05/11 03:34:36;;;;;;;5.00;3.25;;;14.90;98.80;;;;;;4936676;29;20030;-78
2022/05/11 03:34:38;;;;;;;6.60;3.05;;;14.90;99.10;;;;;;4936192;29;20066;-78
2022/05/11 03:37:09;;;;;;;6.28;3.42;;;14.90;99.10;;;;;;4936597;29;20036;-78
2022/05/11 03:39:35;;;;;;;6.03;3.40;;;14.80;99.30;;;;;;4936484;29;20035;-78
2022/05/11 03:42:01;;;;;;;7.35;3.80;;;14.80;99.60;;;;;;4936257;29;20054;-78
2022/05/11 03:44:28;;;;;;;7.38;3.72;;;14.80;99.70;;;;;;4935685;29;20071;-78
2022/05/11 03:46:55;;;;;;;6.45;4.03;;;14.70;99.90;;;;;;4935564;29;20443;-78
2022/05/11 03:49:21;;;;;;;8.40;4.28;;;14.70;99.90;;;;;;4936154;29;20028;-78
2022/05/11 03:51:47;;;;;;;7.60;4.05;;;14.70;99.90;;;;;;4934910;29;20036;-78
2022/05/11 03:54:13;;;;;;;9.15;4.35;;;14.60;99.90;;;;;;4936908;29;20024;-78
2022/05/11 03:56:39;;;;;;;7.68;5.40;;;14.70;99.90;;;;;;4935826;29;20539;-78
2022/05/11 03:59:05;;;;;;;9.02;4.60;;;14.70;99.90;;;;;;4936332;29;20067;-78
2022/05/11 04:01:30;;;;;;;6.45;4.38;;;14.70;99.90;;;;;;4935861;29;20024;-78
2022/05/11 04:03:56;;;;;;;9.82;4.38;;;14.60;99.90;;;;;;4950559;29;20403;-78
2022/05/11 04:06:22;;;;;;;10.80;4.57;;;14.60;99.90;;;;;;4955340;28;20483;-78
2022/05/11 04:08:47;;;;;;;14.40;4.78;;;14.50;99.90;;;;;;4955266;29;20027;-78
2022/05/11 04:11:13;;;;;;;7.28;4.68;;;14.40;99.90;;;;;;4954860;28;20030;-78
2022/05/11 04:13:42;;;;;;;10.30;6.88;;;14.40;99.90;;;;;;4955356;29;20030;-82
2022/05/11 04:16:08;;;;;;;10.73;6.20;;;14.40;99.90;;;;;;4955069;29;20027;-79
2022/05/11 04:18:35;;;;;;;9.57;5.72;;;14.40;99.90;;;;;;4938824;28;20051;-78
2022/05/11 04:21:01;;;;;;;10.00;5.50;;;14.30;99.90;;;;;;4941262;29;20028;-77
2022/05/11 04:23:27;;;;;;;11.25;5.47;;;14.30;99.90;;;;;;4934929;29;20020;-78
2022/05/11 04:25:52;;;;;;;12.38;5.22;;;14.30;99.90;;;;;;4935987;29;20075;-78
2022/05/11 04:28:18;;;;;;;8.98;6.10;;;14.20;99.90;;;;;;4935690;29;20024;-79
2022/05/11 04:30:44;;;;;;;9.73;5.03;;;14.20;99.90;;;;;;4934422;29;20031;-78
2022/05/11 04:33:10;;;;;;;10.48;6.05;;;14.20;99.90;;;;;;4934358;29;20035;-78
2022/05/11 04:35:37;;;;;;;9.27;5.63;;;14.10;99.90;;;;;;4938940;29;20027;-78
2022/05/11 04:38:04;;;;;;;7.60;5.53;;;14.20;99.90;;;;;;4941638;28;20078;-78
2022/05/11 04:40:31;;;;;;;9.77;5.47;;;14.20;99.90;;;;;;4932567;29;20110;-79
2022/05/11 04:42:57;;;;;;;8.35;5.30;;;14.20;99.90;;;;;;4934247;29;20031;-78
2022/05/11 04:45:23;;;;;;;11.63;5.55;;;14.20;99.90;;;;;;4934919;29;20506;-78
2022/05/11 04:47:49;;;;;;;8.70;5.68;;;14.10;99.90;;;;;;4934651;29;20540;-78
2022/05/11 04:50:16;;;;;;;8.77;5.95;;;14.10;99.90;;;;;;4934802;29;20106;-78
2022/05/11 04:52:42;;;;;;;11.50;5.70;;;14.10;99.90;;;;;;4933225;29;20514;-80
2022/05/11 04:55:09;;;;;;;13.35;6.00;;;14.10;99.90;;;;;;4933093;29;20028;-81
2022/05/11 04:57:36;;;;;;;9.23;5.70;;;14.10;99.90;;;;;;4935499;29;20042;-79
2022/05/11 05:00:10;;;;;;;9.45;5.47;;;14.20;99.90;;;;;;4935421;29;20028;-82
2022/05/11 05:02:36;;;;;;;10.63;6.22;;;14.20;99.90;;;;;;4934994;29;20016;-80
2022/05/11 05:05:05;;;;;;;13.57;6.18;;;14.20;99.90;;;;;;4964842;28;20106;-83
2022/05/11 05:07:34;;;;;;;8.20;5.25;;;14.30;99.90;;;;;;4989488;23;20426;-79
2022/05/11 05:10:04;;;;;;;11.00;5.97;;;14.30;99.90;;;;;;4970998;28;20031;-79
2022/05/11 05:12:30;;;;;;;10.25;5.88;;;14.30;99.90;;;;;;4970540;28;20026;-78
2022/05/11 05:14:56;;;;;;;16.13;5.82;;;14.40;99.90;;;;;;4976727;28;20029;-78
2022/05/11 05:17:22;;;;;;;11.90;5.78;;;14.40;99.90;;;;;;4966197;28;20018;-79
2022/05/11 05:19:49;;;;;;;10.77;6.03;;;14.40;99.90;;;;;;4959298;28;20118;-79
2022/05/11 05:22:16;;;;;;;11.20;6.40;;;14.50;99.90;;;;;;4963726;28;20051;-80
2022/05/11 05:24:42;;;;;;;13.35;6.15;;;14.50;99.90;;;;;;4965439;28;20035;-79
2022/05/11 05:27:12;;;;;;;10.38;5.63;;;14.50;99.90;;;;;;4973880;28;20023;-79
2022/05/11 05:32:22;;;;;;;10.70;6.07;;;14.60;99.90;;;;;;4973064;28;20394;-79
2022/05/11 05:34:47;;;;;;;9.77;5.88;;;14.70;99.90;;;;;;4972915;28;20038;-80
2022/05/11 05:37:15;;;;;;;13.45;6.28;;;14.70;99.90;;;;;;4972911;28;20058;-80
2022/05/11 05:39:40;;;;;;;11.65;5.95;;;14.80;99.90;;;;;;4972877;28;20031;-80
2022/05/11 05:42:07;;;;;;;11.18;6.15;;;14.80;99.90;;;;;;4973394;28;20030;-80
2022/05/11 05:44:32;;;;;;;12.90;5.97;;;14.90;99.90;;;;;;4972960;28;20121;-80
2022/05/11 05:47:08;;;;;;;10.95;5.40;;;14.90;99.90;;;;;;4972921;28;20098;-79
2022/05/11 05:49:35;;;;;;;10.40;6.15;;;15.00;99.90;;;;;;4973384;28;20030;-80
2022/05/11 05:52:01;;;;;;;10.38;5.80;;;15.00;99.90;;;;;;4972370;28;20546;-80
2022/05/11 05:54:31;;;;;;;14.23;5.80;;;15.00;99.90;;;;;;4972865;28;20062;-79
2022/05/11 05:56:58;;;;;;;10.32;5.82;;;15.10;99.90;;;;;;4971474;28;20106;-80
2022/05/11 05:59:24;;;;;;;12.40;6.22;;;15.20;99.90;;;;;;4972197;28;20034;-79
2022/05/11 06:01:49;;;;;;;10.05;5.57;;;15.20;99.90;;;;;;4972929;28;20082;-80
2022/05/11 06:04:15;;;;;;;14.18;6.10;;;15.30;99.90;;;;;;4972845;28;20029;-79
2022/05/11 06:06:41;;;;;;;11.50;5.35;;;15.40;99.90;;;;;;4972094;28;20035;-80
2022/05/11 06:09:07;;;;;;;20.42;5.05;;;15.50;99.90;;;;;;4967791;28;20038;-78
2022/05/11 06:11:32;;;;;;;13.27;5.60;;;15.60;99.90;;;;;;4970446;28;20053;-79
2022/05/11 06:13:59;;;;;;;11.57;5.30;;;15.70;99.90;;;;;;4966173;28;20038;-79
2022/05/11 06:16:25;;;;;;;9.65;4.63;;;15.70;99.90;;;;;;4965040;28;20086;-79
2022/05/11 06:18:50;;;;;;;9.88;4.75;;;15.80;99.90;;;;;;4964375;28;20051;-79
2022/05/11 06:21:16;;;;;;;8.10;4.45;;;15.90;99.90;;;;;;4968705;28;20019;-79
2022/05/11 06:23:42;;;;;;;7.50;4.72;;;15.90;99.90;;;;;;4966684;28;20125;-80
2022/05/11 06:26:09;;;;;;;18.05;5.32;;;16.00;99.90;;;;;;4969294;28;20023;-80
2022/05/11 06:28:38;;;;;;;7.55;4.15;;;16.00;99.90;;;;;;4962919;28;20038;-80
2022/05/11 06:31:03;;;;;;;11.35;4.68;;;16.10;99.90;;;;;;4967628;28;20026;-79
2022/05/11 06:33:32;;;;;;;11.40;4.15;;;16.20;99.90;;;;;;4982145;28;20394;-79
2022/05/11 06:35:57;;;;;;;9.32;3.70;;;16.30;99.90;;;;;;4974658;28;20113;-79
2022/05/11 06:38:23;;;;;;;8.70;4.30;;;16.40;99.90;;;;;;4974899;28;20113;-79
2022/05/11 06:40:49;;;;;;;7.25;3.63;;;16.40;99.90;;;;;;4972041;28;20113;-79
2022/05/11 06:43:15;;;;;;;9.15;3.60;;;16.50;99.90;;;;;;4974254;28;20038;-79
2022/05/11 06:45:41;;;;;;;6.95;3.17;;;16.60;99.90;;;;;;4982159;28;20027;-80
2022/05/11 06:48:07;;;;;;;7.70;3.10;;;16.70;99.90;;;;;;4978218;28;20541;-79
2022/05/11 06:50:33;;;;;;;8.48;3.40;;;16.70;99.90;;;;;;4993455;28;20395;-78
2022/05/11 06:53:08;;;;;;;9.25;3.30;;;16.80;99.90;;;;;;4974856;28;20041;-79
2022/05/11 07:00:56;;;;;;;7.93;3.30;;;17.20;99.90;;;;;;4973454;28;20110;-80
2022/05/11 07:03:22;;;;;;;8.88;2.83;;;17.20;99.90;;;;;;4995411;28;20463;-79
2022/05/11 07:05:48;;;;;;;10.55;3.22;;;17.30;99.90;;;;;;4984983;28;20043;-79
2022/05/11 07:08:14;;;;;;;10.48;3.35;;;17.30;99.90;;;;;;4975461;28;20027;-79
2022/05/11 07:12:17;;;;;;;8.05;3.00;;;17.40;99.90;;;;;;4971088;28;20074;-79
2022/05/11 07:13:30;;;;;;;8.40;3.03;;;17.50;99.90;;;;;;4967127;28;20031;-79
2022/05/11 07:15:57;;;;;;;10.38;2.70;;;17.50;99.90;;;;;;4963007;28;20023;-79
2022/05/11 07:18:22;;;;;;;7.00;2.35;;;17.60;99.90;;;;;;4982917;28;20483;-79
2022/05/11 07:20:48;;;;;;;7.32;2.60;;;17.80;99.90;;;;;;4969967;28;20038;-79
2022/05/11 07:23:14;;;;;;;9.38;2.90;;;17.80;99.50;;;;;;4969811;28;20088;-80
2022/05/11 07:25:40;;;;;;;7.95;2.47;;;17.90;99.50;;;;;;4971408;28;20025;-80
2022/05/11 07:28:06;;;;;;;12.65;2.72;;;18.00;98.60;;;;;;4967226;28;20399;-79
2022/05/11 07:30:34;;;;;;;9.07;2.72;;;18.10;98.50;;;;;;4967630;28;20015;-79
2022/05/11 07:33:01;;;;;;;4.13;2.00;;;18.10;97.40;;;;;;4971423;28;20102;-79
2022/05/11 07:35:28;;;;;;;3.90;2.28;;;18.20;97.90;;;;;;4972709;28;20026;-79
2022/05/11 07:37:54;;;;;;;5.95;2.05;;;18.30;98.00;;;;;;4966760;28;20042;-79
2022/05/11 07:40:22;;;;;;;8.02;2.42;;;18.40;97.40;;;;;;4965303;28;20561;-79
2022/05/11 07:42:48;;;;;;;7.63;2.40;;;18.50;96.10;;;;;;4969948;28;20035;-79
2022/05/11 07:45:15;;;;;;;5.50;2.70;;;18.70;96.10;;;;;;4970950;28;20118;-81
2022/05/11 07:47:41;;;;;;;9.70;2.67;;;18.70;95.80;;;;;;4969304;28;20015;-80
2022/05/11 07:50:08;;;;;;;6.95;2.15;;;18.80;95.10;;;;;;4966385;28;20026;-80
2022/05/11 07:52:34;;;;;;;13.02;2.95;;;18.90;95.00;;;;;;4968446;28;20115;-80
2022/05/11 07:55:00;;;;;;;6.85;2.47;;;19.00;94.70;;;;;;4972443;28;20077;-79
2022/05/11 08:00:11;;;;;;;7.65;2.40;;;19.30;93.70;;;;;;4967883;28;20034;-80
2022/05/11 08:02:39;;;;;;;3.60;2.08;;;19.50;93.60;;;;;;4969731;28;20045;-80
2022/05/11 08:05:15;;;;;;;7.97;2.30;;;19.70;93.20;;;;;;4965781;28;20015;-79
2022/05/11 08:07:52;;;;;;;6.55;2.38;;;20.00;92.90;;;;;;4973097;28;20043;-80
2022/05/11 08:10:38;;;;;;;5.82;2.00;;;20.20;92.70;;;;;;4970148;28;20014;-80
2022/05/11 08:13:07;;;;;;;6.47;2.30;;;20.60;92.20;;;;;;4966061;28;20030;-79
2022/05/11 08:15:35;;;;;;;5.32;2.42;;;20.60;91.50;;;;;;4969980;28;20026;-80
2022/05/11 08:18:01;;;;;;;10.93;2.42;;;20.80;90.60;;;;;;4966726;28;20027;-80
2022/05/11 08:20:30;;;;;;;5.07;2.10;;;20.90;90.80;;;;;;4969743;28;20034;-79
2022/05/11 08:22:57;;;;;;;6.00;2.60;;;21.10;89.60;;;;;;4963011;28;20035;-80
2022/05/11 08:25:25;;;;;;;6.72;2.50;;;21.40;88.50;;;;;;4964624;28;20034;-79
2022/05/11 08:27:53;;;;;;;4.40;2.35;;;21.50;87.70;;;;;;4964999;28;20030;-80
2022/05/11 08:33:19;;;;;;;8.93;2.08;;;22.10;86.20;;;;;;4954912;29;20037;-78
2022/05/11 08:35:46;;;;;;;9.82;2.20;;;22.20;83.70;;;;;;4973676;28;20026;-79
2022/05/11 08:38:12;;;;;;;7.63;2.20;;;22.40;85.10;;;;;;4972453;28;20041;-79
2022/05/11 08:40:37;;;;;;;8.18;2.20;;;22.30;83.80;;;;;;4973389;28;20042;-78
2022/05/11 08:43:05;;;;;;;8.93;2.63;;;22.80;84.10;;;;;;4973970;28;20113;-76
2022/05/11 08:46:20;;;;;;;4.53;2.00;;;23.00;82.50;;;;;;4963580;28;20027;-79
2022/05/11 08:49:23;;;;;;;4.57;2.05;;;22.90;80.30;;;;;;4945703;28;20070;-80
2022/05/11 08:51:58;;;;;;;5.40;2.10;;;23.00;81.40;;;;;;4969658;28;20024;-78
2022/05/11 08:54:30;;;;;;;6.43;2.05;;;23.30;77.80;;;;;;4953898;29;20027;-80
2022/05/11 08:56:55;;;;;;;3.85;2.42;;;23.40;79.70;;;;;;4962283;28;20401;-80
2022/05/11 08:59:30;;;;;;;9.10;2.40;;;23.50;78.10;;;;;;4977890;28;20034;-79
2022/05/11 09:02:05;;;;;;;5.93;2.35;;;23.20;78.20;;;;;;4972402;28;20022;-80
2022/05/11 09:04:40;;;;;;;11.80;2.75;;;23.40;76.50;;;;;;4964376;28;20026;-80
2022/05/11 09:07:09;;;;;;;5.55;2.47;;;23.50;76.90;;;;;;4972929;28;20045;-80
2022/05/11 09:09:35;;;;;;;4.75;2.20;;;23.50;77.00;;;;;;4962208;28;20082;-80
2022/05/11 09:12:01;;;;;;;6.85;2.10;;;23.70;76.10;;;;;;4967432;28;20034;-80
2022/05/11 09:14:45;;;;;;;10.43;2.60;;;23.80;74.80;;;;;;4962782;28;20019;-80
2022/05/11 09:17:23;;;;;;;5.53;2.33;;;23.60;74.70;;;;;;4965656;28;20023;-79
2022/05/11 09:20:12;;;;;;;4.80;2.33;;;23.80;75.40;;;;;;4965624;28;20031;-80
2022/05/11 09:22:41;;;;;;;5.53;2.33;;;23.80;74.70;;;;;;4961626;28;20027;-79
2022/05/11 09:25:29;;;;;;;6.25;2.10;;;24.20;74.60;;;;;;4963817;28;20398;-76
2022/05/11 09:28:14;;;;;;;5.32;1.80;;;24.30;73.90;;;;;;4961373;28;20019;-77
2022/05/11 09:30:55;;;;;;;16.33;2.25;;;24.80;72.30;;;;;;4962551;28;20089;-81
2022/05/11 09:33:27;;;;;;;5.97;2.70;;;24.40;73.00;;;;;;4975604;28;20058;-82
2022/05/11 09:35:52;;;;;;;3.13;1.63;;;24.90;72.80;;;;;;4975204;28;20035;-80
2022/05/11 09:38:19;;;;;;;3.10;1.52;;;25.20;73.50;;;;;;4970941;28;20085;-82
2022/05/11 09:41:09;;;;;;;16.10;2.50;;;24.80;73.60;;;;;;4967549;28;20414;-75
2022/05/11 09:43:46;;;;;;;5.20;2.40;;;24.90;72.00;;;;;;4971417;28;20022;-75
2022/05/11 09:46:30;;;;;;;7.43;2.30;;;25.00;71.30;;;;;;4961736;28;20031;-77
2022/05/11 09:48:58;;;;;;;4.40;1.90;;;25.30;72.20;;;;;;4962366;28;20023;-75
2022/05/11 09:51:33;;;;;;;8.57;2.10;;;25.10;71.00;;;;;;4957049;28;20038;-75
2022/05/11 09:54:38;;;;;;;10.10;2.30;;;25.70;71.80;;;;;;4953892;29;20016;-75
2022/05/11 09:57:26;;;;;;;9.40;2.15;;;25.20;69.60;;;;;;4932078;29;20078;-75
2022/05/11 09:59:56;;;;;;;7.93;2.38;;;25.00;71.20;;;;;;4939182;29;20032;-76
2022/05/11 10:02:28;;;;;;;11.93;2.50;;;25.20;70.10;;;;;;4948917;28;20019;-76
2022/05/11 10:05:10;;;;;;;5.10;2.35;;;25.70;71.20;;;;;;4950402;29;20134;-75
2022/05/11 10:08:01;;;;;;;4.70;2.22;;;24.90;68.90;;;;;;4949048;29;20187;-75
2022/05/11 10:10:44;;;;;;;9.07;2.30;;;25.20;69.30;;;;;;4939236;29;20103;-75
2022/05/11 10:13:21;;;;;;;3.83;2.33;;;25.10;70.00;;;;;;4947762;29;20515;-75
2022/05/11 10:21:56;;;;;;;5.15;2.38;;;25.50;68.30;;;;;;4954410;29;20043;-72
2022/05/11 10:25:15;;;;;;;4.40;1.93;;;26.00;68.20;;;;;;4950579;29;20043;-75
2022/05/11 10:28:05;;;;;;;6.00;2.05;;;26.10;68.90;;;;;;4876655;29;20108;-75
2022/05/11 10:30:45;;;;;;;8.23;1.95;;;26.90;69.30;;;;;;4889325;29;20028;-76
2022/05/11 10:33:35;;;;;;;3.50;1.98;;;26.40;68.80;;;;;;4906899;29;20074;-74
2022/05/11 10:36:24;;;;;;;4.43;2.10;;;26.50;68.30;;;;;;4900129;29;20405;-75
2022/05/11 10:38:55;;;;;;;5.90;2.10;;;27.10;69.50;;;;;;4913949;29;20528;-75
2022/05/11 10:41:41;;;;;;;5.40;2.05;;;27.10;68.40;;;;;;4883855;29;20071;-75
2022/05/11 10:44:29;;;;;;;6.47;1.92;;;26.80;66.50;;;;;;4915146;29;20575;-75
2022/05/11 10:47:19;;;;;;;4.75;2.00;;;26.40;65.50;;;;;;4914872;29;20042;-75
2022/05/11 10:50:02;;;;;;;7.20;1.75;;;26.50;66.40;;;;;;4899292;29;20064;-75
2022/05/11 10:52:43;;;;;;;4.38;1.90;;;26.50;66.60;;;;;;4903138;29;20033;-75
2022/05/11 10:55:27;;;;;;;8.48;2.40;;;26.40;66.40;;;;;;4897205;29;20077;-75
2022/05/11 10:58:14;;;;;;;6.10;1.90;;;26.90;66.50;;;;;;4896715;29;20044;-76
2022/05/11 11:01:05;;;;;;;6.10;2.45;;;26.70;64.30;;;;;;4911864;28;20471;-76
2022/05/11 11:03:34;;;;;;;4.22;2.03;;;26.10;65.70;;;;;;4974944;28;20455;-74
2022/05/11 11:08:58;;;;;;;8.05;2.30;;;27.10;67.90;;;;;;4973573;28;20050;-75
2022/05/11 11:11:27;;;;;;;3.80;2.00;;;26.60;65.70;;;;;;4974244;28;20023;-75
2022/05/11 11:14:01;;;;;;;4.72;1.73;;;27.20;69.00;;;;;;4974738;28;20031;-75
2022/05/11 11:16:39;;;;;;;6.65;2.00;;;27.40;64.10;;;;;;4975247;28;20027;-75
2022/05/11 11:19:08;;;;;;;10.52;2.03;;;26.90;64.70;;;;;;4974736;28;20100;-75
2022/05/11 11:21:39;;;;;;;7.20;2.03;;;26.70;66.10;;;;;;4970309;28;20028;-75
2022/05/11 11:24:33;;;;;;;8.20;1.98;;;26.60;66.70;;;;;;4973372;28;20162;-76
2022/05/11 11:27:05;;;;;;;6.85;2.10;;;26.80;67.20;;;;;;4970164;28;20042;-75
2022/05/11 11:29:36;;;;;;;;;;;26.50;64.10;;;;;;4979622;28;20019;-75
2022/05/11 11:32:15;;;;;;;4.73;2.13;;;27.00;64.70;;;;;;4964493;28;20263;-75
2022/05/11 11:34:48;;;;;;;9.73;1.92;;;27.20;64.40;;;;;;4973429;28;20054;-75
2022/05/11 11:37:29;;;;;;;6.38;1.92;;;27.00;64.80;;;;;;4975103;28;20019;-75
2022/05/11 11:40:13;;;;;;;5.63;2.38;;;27.20;64.90;;;;;;4974471;28;20161;-75
2022/05/11 11:42:46;;;;;;;5.35;2.00;;;27.00;62.60;;;;;;4967639;28;20082;-75
2022/05/11 11:45:37;;;;;;;15.80;2.75;;;27.10;63.80;;;;;;4956425;28;20066;-75
2022/05/11 11:48:04;;;;;;;7.15;1.73;;;27.20;65.10;;;;;;4935734;29;20042;-75
2022/05/11 11:50:51;;;;;;;4.28;2.13;;;26.90;65.20;;;;;;4936816;29;20031;-75
2022/05/11 11:53:33;;;;;;;3.45;2.15;;;27.10;64.90;;;;;;4952298;29;20031;-75
2022/05/11 11:56:23;;;;;;;5.35;1.85;;;27.00;64.00;;;;;;4934447;29;20051;-75
2022/05/11 11:59:31;;;;;;;4.80;2.17;;;27.10;64.60;;;;;;4934944;29;20150;-75
2022/05/11 12:02:11;;;;;;;4.50;2.00;;;27.50;64.30;;;;;;4934440;29;20036;-75
2022/05/11 12:04:58;;;;;;;7.45;1.90;;;27.20;64.10;;;;;;4951739;28;20025;-75
2022/05/11 12:16:04;;;;;;;6.85;2.10;;;27.30;64.30;;;;;;4951919;28;20046;-75
2022/05/11 12:18:33;;;;;;;7.53;2.03;;;27.20;63.80;;;;;;4920937;29;20528;-75
2022/05/11 12:21:01;;;;;;;5.65;1.95;;;27.30;63.50;;;;;;4939412;29;20106;-75
2022/05/11 12:23:36;;;;;;;5.13;1.95;;;27.50;63.30;;;;;;4953139;29;20031;-75
2022/05/11 12:26:07;;;;;;;6.80;2.25;;;27.70;62.10;;;;;;4972612;28;20031;-75
2022/05/11 12:28:38;;;;;;;11.30;2.70;;;27.80;63.60;;;;;;4956587;28;20058;-75
2022/05/11 12:31:05;;;;;;;3.97;2.20;;;27.50;60.60;;;;;;4955091;29;20263;-75
2022/05/11 12:33:39;;;;;;;9.23;2.13;;;27.60;61.70;;;;;;4955575;28;20027;-75
2022/05/11 12:36:06;;;;;;;7.82;1.75;;;28.20;63.00;;;;;;4964133;28;20038;-75
2022/05/11 12:38:36;;;;;;;8.30;2.10;;;28.50;60.50;;;;;;4968345;28;20019;-75
2022/05/11 12:41:08;;;;;;;5.72;2.33;;;28.30;60.40;;;;;;4966551;28;20151;-75
2022/05/11 12:43:36;;;;;;;7.25;2.22;;;28.40;61.70;;;;;;4970612;28;20019;-75
2022/05/11 12:46:07;;;;;;;8.70;2.40;;;28.30;61.30;;;;;;4969044;28;20030;-75
2022/05/11 12:48:53;;;;;;;3.70;1.92;;;28.50;62.50;;;;;;4960409;28;20035;-75
2022/05/11 12:51:29;;;;;;;6.10;2.33;;;28.20;62.70;;;;;;4963658;28;20027;-75
2022/05/11 12:53:58;;;;;;;5.28;1.80;;;27.90;63.00;;;;;;4973259;28;20022;-75
2022/05/11 12:56:33;;;;;;;4.03;2.08;;;28.20;63.20;;;;;;4955002;28;20071;-75
2022/05/11 12:59:03;;;;;;;4.82;2.25;;;27.90;61.30;;;;;;4958293;28;20398;-75
2022/05/11 13:01:32;;;;;;;4.13;2.03;;;28.00;62.10;;;;;;4955178;28;20035;-75
2022/05/11 13:04:14;;;;;;;5.68;2.10;;;28.30;62.10;;;;;;4955401;29;20027;-76
2022/05/11 13:07:01;;;;;;;11.05;2.00;;;28.30;58.30;;;;;;4957001;28;20051;-75
2022/05/11 13:09:39;;;;;;;3.35;1.60;;;27.70;59.60;;;;;;4966014;28;20447;-75
2022/05/11 13:12:06;;;;;;;3.60;1.92;;;28.10;60.60;;;;;;4973988;28;20030;-75
2022/05/11 13:14:38;;;;;;;9.50;1.90;;;28.50;59.20;;;;;;4965249;28;20023;-75
2022/05/11 13:17:06;;;;;;;7.25;2.28;;;28.20;58.00;;;;;;4964825;28;20391;-75
2022/05/11 13:19:38;;;;;;;5.55;2.30;;;27.90;58.70;;;;;;4958687;28;20019;-75
2022/05/11 13:22:13;;;;;;;3.75;1.77;;;27.90;58.20;;;;;;4969011;28;20118;-75
2022/05/11 13:24:44;;;;;;;8.77;1.95;;;27.90;56.80;;;;;;4970632;28;20026;-76
2022/05/11 13:27:37;;;;;;;7.78;1.88;;;27.70;57.60;;;;;;4970398;28;20030;-75
2022/05/11 13:30:40;;;;;;;5.55;1.95;;;27.80;60.00;;;;;;4972548;28;20042;-75
2022/05/11 13:33:34;;;;;;;3.22;1.98;;;28.10;60.00;;;;;;4968073;28;20038;-75
2022/05/11 13:36:07;;;;;;;6.03;2.08;;;28.10;58.10;;;;;;4967913;28;20023;-75
2022/05/11 13:38:33;;;;;;;5.57;2.47;;;28.40;59.20;;;;;;4971288;28;20038;-75
2022/05/11 13:41:02;;;;;;;7.78;2.20;;;28.40;59.70;;;;;;4964715;28;20479;-75